createdAt,value
2019-02-11T00:01:11.455Z,1.55
2019-02-11T00:03:39.701Z,1.62
2019-02-11T00:06:08.029Z,1.40
2019-02-11T00:08:36.207Z,1.87
2019-02-11T00:11:04.358Z,1.73
2019-02-11T00:13:32.439Z,1.20
2019-02-11T00:16:00.984Z,1.30
2019-02-11T00:18:29.096Z,1.92
2019-02-11T00:20:56.908Z,2.50
2019-02-11T00:23:26.229Z,1.77
2019-02-11T00:25:54.903Z,1.70
2019-02-11T00:28:23.003Z,1.80
2019-02-11T00:30:51.181Z,1.95
2019-02-11T00:33:19.258Z,1.45
2019-02-11T00:35:47.301Z,1.58
2019-02-11T00:38:15.194Z,2.65
2019-02-11T00:40:43.238Z,1.90
2019-02-11T00:43:18.996Z,2.90
2019-02-11T00:45:40.492Z,1.83
2019-02-11T00:48:08.596Z,2.12
2019-02-11T00:50:36.678Z,3.05
2019-02-11T00:53:04.954Z,2.62
2019-02-11T00:55:33.009Z,2.10
2019-02-11T00:58:00.791Z,2.20
2019-02-11T01:00:29.386Z,2.37
2019-02-11T01:02:57.131Z,2.30
2019-02-11T01:05:24.908Z,2.03
2019-02-11T01:07:52.741Z,2.60
2019-02-11T01:10:20.830Z,2.55
2019-02-11T01:12:48.926Z,2.80
2019-02-11T01:15:18.484Z,2.35
2019-02-11T01:17:47.377Z,2.47
2019-02-11T01:20:15.179Z,2.40
2019-02-11T01:22:43.540Z,2.28
2019-02-11T01:25:12.537Z,2.83
2019-02-11T01:27:40.616Z,2.15
2019-02-11T01:30:10.588Z,2.28
2019-02-11T01:32:38.733Z,2.03
2019-02-11T01:35:06.842Z,2.25
2019-02-11T01:37:35.456Z,1.95
2019-02-11T01:40:03.728Z,2.00
2019-02-11T01:42:31.829Z,2.67
2019-02-11T01:45:00.279Z,2.05
2019-02-11T01:47:28.037Z,2.28
2019-02-11T01:49:55.484Z,1.85
2019-02-11T01:52:23.635Z,2.20
2019-02-11T01:54:51.530Z,2.42
2019-02-11T01:57:19.707Z,2.47
2019-02-11T01:59:47.576Z,2.25
2019-02-11T02:02:15.669Z,2.60
2019-02-11T02:04:43.920Z,1.87
2019-02-11T02:07:12.256Z,2.10
2019-02-11T02:09:40.843Z,1.90
2019-02-11T02:12:08.772Z,2.28
2019-02-11T02:14:36.829Z,2.17
2019-02-11T02:17:04.995Z,1.95
2019-02-11T02:19:33.565Z,2.03
2019-02-11T02:22:01.663Z,2.00
2019-02-11T02:24:29.545Z,2.20
2019-02-11T02:26:57.781Z,1.90
2019-02-11T02:29:26.512Z,2.17
2019-02-11T02:31:55.602Z,2.03
2019-02-11T02:34:26.475Z,1.85
2019-02-11T02:36:56.140Z,2.20
2019-02-11T02:39:25.803Z,2.17
2019-02-11T02:41:54.670Z,2.87
2019-02-11T02:44:22.860Z,2.85
2019-02-11T02:46:50.976Z,2.25
2019-02-11T02:49:19.032Z,3.05
2019-02-11T02:51:47.415Z,3.22
2019-02-11T02:54:15.533Z,3.55
2019-02-11T02:56:43.749Z,3.22
2019-02-11T02:59:11.212Z,2.70
2019-02-11T03:01:39.281Z,3.25
2019-02-11T03:04:07.355Z,2.67
2019-02-11T03:06:35.523Z,2.92
2019-02-11T03:09:03.785Z,3.12
2019-02-11T03:11:31.666Z,2.78
2019-02-11T03:14:05.829Z,2.55
2019-02-11T03:16:29.378Z,3.33
2019-02-11T03:18:57.620Z,3.17
2019-02-11T03:21:25.732Z,3.20
2019-02-11T03:23:53.856Z,3.60
2019-02-11T03:26:22.034Z,3.28
2019-02-11T03:28:51.552Z,3.30
2019-02-11T03:31:19.625Z,2.95
2019-02-11T03:33:47.713Z,3.30
2019-02-11T03:36:16.021Z,3.28
2019-02-11T03:38:44.131Z,4.35
2019-02-11T03:41:12.304Z,3.37
2019-02-11T03:43:40.382Z,3.58
2019-02-11T03:46:08.544Z,3.40
2019-02-11T03:48:37.185Z,2.95
2019-02-11T03:51:05.437Z,3.50
2019-02-11T03:53:33.621Z,3.12
2019-02-11T03:56:02.001Z,3.00
2019-02-11T03:58:30.763Z,3.22
2019-02-11T04:00:58.806Z,3.28
2019-02-11T04:03:26.510Z,3.00
2019-02-11T04:05:54.985Z,2.90
2019-02-11T04:08:23.042Z,3.50
2019-02-11T04:10:50.806Z,3.22
2019-02-11T04:13:18.980Z,3.00
2019-02-11T04:15:47.138Z,3.90
2019-02-11T04:18:14.607Z,3.08
2019-02-11T04:20:43.544Z,3.12
2019-02-11T04:23:11.373Z,3.05
2019-02-11T04:25:40.131Z,3.45
2019-02-11T04:28:08.503Z,3.22
2019-02-11T04:30:36.931Z,3.20
2019-02-11T04:33:05.569Z,3.20
2019-02-11T04:35:33.680Z,2.67
2019-02-11T04:38:01.214Z,2.55
2019-02-11T04:40:29.277Z,3.62
2019-02-11T04:42:57.650Z,2.90
2019-02-11T04:45:25.846Z,3.42
2019-02-11T04:47:54.018Z,3.37
2019-02-11T04:50:22.395Z,3.30
2019-02-11T04:52:50.479Z,3.97
2019-02-11T04:55:18.548Z,3.28
2019-02-11T04:57:46.764Z,2.90
2019-02-11T05:00:14.885Z,3.25
2019-02-11T05:02:42.984Z,3.17
2019-02-11T05:05:12.155Z,3.12
2019-02-11T05:07:41.422Z,2.80
2019-02-11T05:10:10.811Z,2.70
2019-02-11T05:12:39.264Z,3.60
2019-02-11T05:15:08.210Z,2.90
2019-02-11T05:17:36.395Z,3.15
2019-02-11T05:20:05.171Z,3.30
2019-02-11T05:22:32.862Z,2.92
2019-02-11T05:25:01.407Z,2.92
2019-02-11T05:27:29.707Z,3.58
2019-02-11T05:29:57.486Z,2.55
2019-02-11T05:32:26.348Z,2.70
2019-02-11T05:34:54.460Z,2.87
2019-02-11T05:37:22.520Z,2.67
2019-02-11T05:39:50.568Z,3.37
2019-02-11T05:42:18.638Z,3.17
2019-02-11T05:44:53.728Z,3.37
2019-02-11T05:47:14.603Z,3.72
2019-02-11T05:49:42.978Z,3.17
2019-02-11T05:52:10.718Z,3.87
2019-02-11T05:54:39.326Z,4.10
2019-02-11T05:57:07.416Z,3.60
2019-02-11T05:59:35.263Z,2.95
2019-02-11T06:02:03.516Z,3.13
2019-02-11T06:04:32.300Z,4.17
2019-02-11T06:07:00.367Z,3.58
2019-02-11T06:09:28.363Z,3.50
2019-02-11T06:11:56.563Z,3.40
2019-02-11T06:14:24.692Z,3.27
2019-02-11T06:16:52.763Z,3.80
2019-02-11T06:19:20.844Z,3.97
2019-02-11T06:21:48.895Z,3.87
2019-02-11T06:24:16.674Z,4.13
2019-02-11T06:26:45.050Z,2.87
2019-02-11T06:29:13.122Z,3.57
2019-02-11T06:31:40.909Z,2.97
2019-02-11T06:34:09.363Z,4.10
2019-02-11T06:36:37.648Z,3.00
2019-02-11T06:39:06.014Z,3.87
2019-02-11T06:41:33.888Z,3.58
2019-02-11T06:44:01.693Z,4.27
2019-02-11T06:46:29.316Z,3.73
2019-02-11T06:48:57.618Z,4.07
2019-02-11T06:51:25.890Z,4.40
2019-02-11T06:53:53.926Z,4.03
2019-02-11T06:56:21.808Z,4.18
2019-02-11T06:58:49.631Z,4.07
2019-02-11T07:01:17.806Z,3.47
2019-02-11T07:03:45.826Z,3.87
2019-02-11T07:06:13.886Z,3.55
2019-02-11T07:08:41.943Z,4.45
2019-02-11T07:11:10.320Z,3.60
2019-02-11T07:13:38.137Z,3.58
2019-02-11T07:16:06.787Z,3.75
2019-02-11T07:18:37.088Z,3.12
2019-02-11T07:21:03.346Z,3.25
2019-02-11T07:23:31.408Z,3.80
2019-02-11T07:25:58.937Z,3.78
2019-02-11T07:28:27.029Z,3.97
2019-02-11T07:30:55.146Z,3.87
2019-02-11T07:33:23.698Z,3.37
2019-02-11T07:35:52.774Z,4.00
2019-02-11T07:38:20.234Z,4.68
2019-02-11T07:40:48.354Z,3.37
2019-02-11T07:43:29.790Z,3.17
2019-02-11T07:46:01.137Z,2.83
2019-02-11T07:48:29.656Z,2.95
2019-02-11T07:50:56.662Z,3.85
2019-02-11T07:53:25.055Z,3.75
2019-02-11T07:55:53.327Z,3.00
2019-02-11T07:58:21.378Z,3.53
2019-02-11T08:00:49.579Z,3.75
2019-02-11T08:03:17.667Z,3.72
2019-02-11T08:05:45.503Z,4.25
2019-02-11T08:08:13.771Z,2.97
2019-02-11T08:10:41.887Z,2.97
2019-02-11T08:13:10.026Z,3.83
2019-02-11T08:15:38.898Z,4.10
2019-02-11T08:18:06.792Z,3.60
2019-02-11T08:20:34.828Z,3.53
2019-02-11T08:23:10.993Z,3.28
2019-02-11T08:25:31.292Z,3.65
2019-02-11T08:27:59.377Z,3.90
2019-02-11T08:30:27.722Z,3.50
2019-02-11T08:32:55.831Z,4.30
2019-02-11T08:35:24.490Z,4.97
2019-02-11T08:37:53.664Z,3.90
2019-02-11T08:40:21.486Z,3.65
2019-02-11T08:42:49.539Z,4.37
2019-02-11T08:45:17.630Z,3.90
2019-02-11T08:47:45.667Z,3.70
2019-02-11T08:50:13.768Z,4.85
2019-02-11T08:52:41.842Z,3.33
2019-02-11T08:55:10.275Z,3.60
2019-02-11T08:57:38.169Z,3.28
2019-02-11T09:00:07.030Z,3.00
2019-02-11T09:02:35.127Z,4.75
2019-02-11T09:05:02.599Z,3.45
2019-02-11T09:07:30.759Z,3.15
2019-02-11T09:09:58.960Z,3.80
2019-02-11T09:12:27.010Z,3.87
2019-02-11T09:14:55.105Z,3.67
2019-02-11T09:17:23.169Z,4.43
2019-02-11T09:19:51.422Z,3.53
2019-02-11T09:22:19.603Z,3.35
2019-02-11T09:24:47.782Z,3.35
2019-02-11T09:27:15.849Z,3.62
2019-02-11T09:29:44.225Z,4.45
2019-02-11T09:32:12.293Z,3.55
2019-02-11T09:34:40.362Z,3.53
2019-02-11T09:37:08.660Z,3.92
2019-02-11T09:39:37.560Z,3.83
2019-02-11T09:42:05.617Z,3.97
2019-02-11T09:44:34.074Z,3.00
2019-02-11T09:47:01.939Z,3.37
2019-02-11T09:49:29.811Z,3.42
2019-02-11T09:51:58.619Z,3.35
2019-02-11T09:54:26.654Z,3.10
2019-02-11T09:56:54.746Z,2.95
2019-02-11T09:59:23.135Z,3.20
2019-02-11T10:01:51.211Z,2.58
2019-02-11T10:04:19.245Z,3.58
2019-02-11T10:06:47.874Z,3.58
2019-02-11T10:09:16.044Z,2.53
2019-02-11T10:11:43.917Z,3.60
2019-02-11T10:14:11.987Z,3.12
2019-02-11T10:16:39.744Z,3.20
2019-02-11T10:19:07.787Z,3.35
2019-02-11T10:21:35.897Z,3.35
2019-02-11T10:24:04.045Z,3.33
2019-02-11T10:26:32.116Z,2.72
2019-02-11T10:29:00.179Z,2.05
2019-02-11T10:31:28.265Z,2.05
2019-02-11T10:33:56.419Z,3.05
2019-02-11T10:36:24.481Z,2.37
2019-02-11T10:38:52.532Z,2.58
2019-02-11T10:41:20.757Z,2.83
2019-02-11T10:43:48.559Z,2.22
2019-02-11T10:46:21.046Z,3.30
2019-02-11T10:48:44.861Z,2.35
2019-02-11T10:51:13.768Z,2.42
2019-02-11T10:53:41.612Z,2.92
2019-02-11T10:56:09.679Z,3.30
2019-02-11T10:58:37.576Z,2.10
2019-02-11T11:01:05.694Z,2.60
2019-02-11T11:03:34.267Z,2.72
2019-02-11T11:06:03.043Z,2.33
2019-02-11T11:08:31.783Z,3.05
2019-02-11T11:10:59.842Z,2.25
2019-02-11T11:13:28.217Z,2.55
2019-02-11T11:15:56.290Z,2.92
2019-02-11T11:18:24.404Z,2.58
2019-02-11T11:20:51.951Z,2.58
2019-02-11T11:23:19.389Z,2.25
2019-02-11T11:25:47.533Z,2.70
2019-02-11T11:28:16.223Z,2.37
2019-02-11T11:30:44.324Z,2.30
2019-02-11T11:33:12.880Z,2.70
2019-02-11T11:35:41.287Z,2.40
2019-02-11T11:38:09.319Z,3.35
2019-02-11T11:40:37.510Z,3.03
2019-02-11T11:43:05.685Z,2.60
2019-02-11T11:45:33.769Z,4.12
2019-02-11T11:48:01.587Z,3.00
2019-02-11T11:50:29.803Z,3.30
2019-02-11T11:52:57.685Z,2.83
2019-02-11T11:55:25.506Z,2.92
2019-02-11T11:57:53.914Z,3.45
2019-02-11T12:00:23.135Z,2.70
2019-02-11T12:03:02.196Z,2.87
2019-02-11T12:05:19.750Z,3.70
2019-02-11T12:07:47.846Z,2.87
2019-02-11T12:10:16.504Z,3.12
2019-02-11T12:12:45.439Z,2.95
2019-02-11T12:15:13.494Z,2.58
2019-02-11T12:17:41.868Z,2.40
2019-02-11T12:20:10.674Z,2.55
2019-02-11T12:22:38.715Z,3.10
2019-02-11T12:25:07.640Z,2.75
2019-02-11T12:27:35.800Z,3.17
2019-02-11T12:30:04.018Z,3.40
2019-02-11T12:32:31.821Z,2.47
2019-02-11T12:35:00.508Z,3.05
2019-02-11T12:37:28.391Z,2.20
2019-02-11T12:39:56.452Z,2.85
2019-02-11T12:42:24.314Z,2.55
2019-02-11T12:44:52.981Z,2.33
2019-02-11T12:47:20.785Z,2.53
2019-02-11T12:49:49.021Z,3.03
2019-02-11T12:52:17.031Z,2.53
2019-02-11T12:54:46.285Z,2.00
2019-02-11T12:57:16.555Z,2.65
2019-02-11T12:59:45.862Z,2.00
2019-02-11T13:02:15.517Z,2.65
2019-02-11T13:04:46.214Z,2.90
2019-02-11T13:07:16.081Z,2.60
2019-02-11T13:09:47.738Z,3.58
2019-02-11T13:12:16.602Z,2.95
2019-02-11T13:14:45.142Z,2.92
2019-02-11T13:17:18.363Z,1.90
2019-02-11T13:19:44.420Z,2.90
2019-02-11T13:22:13.010Z,2.05
2019-02-11T13:24:42.159Z,2.58
2019-02-11T13:27:12.697Z,2.15
2019-02-11T13:29:41.428Z,2.60
2019-02-11T13:32:10.785Z,3.22
2019-02-11T13:34:39.394Z,2.55
2019-02-11T13:37:08.137Z,3.60
2019-02-11T13:39:39.773Z,3.20
2019-02-11T13:42:09.542Z,3.40
2019-02-11T13:44:37.362Z,2.65
2019-02-11T13:47:05.804Z,2.95
2019-02-11T13:49:33.829Z,2.97
2019-02-11T13:52:01.375Z,2.87
2019-02-11T13:54:29.640Z,1.95
2019-02-11T13:56:57.775Z,2.20
2019-02-11T13:59:26.064Z,2.00
2019-02-11T14:01:54.148Z,2.25
2019-02-11T14:04:22.308Z,1.05
2019-02-11T14:06:50.400Z,2.53
2019-02-11T14:09:18.482Z,2.97
2019-02-11T14:11:47.366Z,1.55
2019-02-11T14:14:15.682Z,2.37
2019-02-11T14:16:43.773Z,1.90
2019-02-11T14:19:11.874Z,2.35
2019-02-11T14:21:40.319Z,2.72
2019-02-11T14:24:08.114Z,2.45
2019-02-11T14:26:36.093Z,2.10
2019-02-11T14:29:04.184Z,2.40
2019-02-11T14:31:32.306Z,2.55
2019-02-11T14:34:00.702Z,2.65
2019-02-11T14:36:28.886Z,2.10
2019-02-11T14:38:56.929Z,2.10
2019-02-11T14:41:25.302Z,2.53
2019-02-11T14:43:53.056Z,2.90
2019-02-11T14:46:21.145Z,2.58
2019-02-11T14:48:49.551Z,3.20
2019-02-11T14:51:18.669Z,2.97
2019-02-11T14:53:47.390Z,2.47
2019-02-11T14:56:16.311Z,3.12
2019-02-11T14:58:47.743Z,2.30
2019-02-11T15:01:16.324Z,2.28
2019-02-11T15:03:44.859Z,2.05
2019-02-11T15:06:12.732Z,2.87
2019-02-11T15:08:43.040Z,2.03
2019-02-11T15:11:18.627Z,2.70
2019-02-11T15:13:46.670Z,2.50
2019-02-11T15:16:18.073Z,2.65
2019-02-11T15:18:47.407Z,2.60
2019-02-11T15:21:15.329Z,2.25
2019-02-11T15:23:45.021Z,2.87
2019-02-11T15:26:14.158Z,2.08
2019-02-11T15:28:42.937Z,2.60
2019-02-11T15:31:11.633Z,2.35
2019-02-11T15:33:40.003Z,2.30
2019-02-11T15:36:07.892Z,2.10
2019-02-11T15:38:40.212Z,2.35
2019-02-11T15:41:11.886Z,2.15
2019-02-11T15:43:40.049Z,2.37
2019-02-11T15:46:09.726Z,2.25
2019-02-11T15:48:43.167Z,1.95
2019-02-11T15:51:10.327Z,2.03
2019-02-11T15:53:39.103Z,2.28
2019-02-11T15:56:11.982Z,2.37
2019-02-11T15:58:40.835Z,2.00
2019-02-11T16:01:10.325Z,1.92
2019-02-11T16:03:48.940Z,1.77
2019-02-11T16:06:20.057Z,2.20
2019-02-11T16:08:49.584Z,2.62
2019-02-11T16:11:17.654Z,2.42
2019-02-11T16:13:48.905Z,2.72
2019-02-11T16:16:18.497Z,2.30
2019-02-11T16:18:51.844Z,2.20
2019-02-11T16:21:17.430Z,2.60
2019-02-11T16:23:46.618Z,2.70
2019-02-11T16:26:16.549Z,2.42
2019-02-11T16:28:45.197Z,2.83
2019-02-11T16:31:15.558Z,2.08
2019-02-11T16:33:43.791Z,2.58
2019-02-11T16:36:12.543Z,2.25
2019-02-11T16:38:41.230Z,2.60
2019-02-11T16:41:09.971Z,2.83
2019-02-11T16:43:39.691Z,2.37
2019-02-11T16:46:09.471Z,2.60
2019-02-11T16:48:41.038Z,2.22
2019-02-11T16:51:09.668Z,2.35
2019-02-11T16:53:38.041Z,2.22
2019-02-11T16:56:06.662Z,2.28
2019-02-11T16:58:37.120Z,2.87
2019-02-11T17:01:07.965Z,2.40
2019-02-11T17:03:37.032Z,2.50
2019-02-11T17:06:06.528Z,2.42
2019-02-11T17:08:35.471Z,2.30
2019-02-11T17:11:05.752Z,3.35
2019-02-11T17:13:35.609Z,2.40
2019-02-11T17:16:07.103Z,2.75
2019-02-11T17:18:38.814Z,2.67
2019-02-11T17:21:07.761Z,2.28
2019-02-11T17:23:35.637Z,3.05
2019-02-11T17:26:08.235Z,2.87
2019-02-11T17:28:37.603Z,2.62
2019-02-11T17:31:07.403Z,3.37
2019-02-11T17:33:35.793Z,2.37
2019-02-11T17:36:04.497Z,3.03
2019-02-11T17:38:34.099Z,3.90
2019-02-11T17:41:03.548Z,3.12
2019-02-11T17:43:32.001Z,3.28
2019-02-11T17:46:00.557Z,3.12
2019-02-11T17:48:29.032Z,2.85
2019-02-11T17:51:00.178Z,3.10
2019-02-11T17:53:29.594Z,2.80
2019-02-11T17:56:00.849Z,2.67
2019-02-11T17:58:29.868Z,3.08
2019-02-11T18:01:01.861Z,2.53
2019-02-11T18:03:30.150Z,2.95
2019-02-11T18:06:00.357Z,2.55
2019-02-11T18:08:27.966Z,2.50
2019-02-11T18:10:56.739Z,3.33
2019-02-11T18:13:26.310Z,2.90
2019-02-11T18:15:55.625Z,2.62
2019-02-11T18:18:25.819Z,3.08
2019-02-11T18:20:54.685Z,2.92
2019-02-11T18:23:22.931Z,2.67
2019-02-11T18:25:51.928Z,2.70
2019-02-11T18:28:20.750Z,3.40
2019-02-11T18:30:49.072Z,3.58
2019-02-11T18:33:17.468Z,2.90
2019-02-11T18:35:45.960Z,2.97
2019-02-11T18:38:14.154Z,3.70
2019-02-11T18:40:42.530Z,3.15
2019-02-11T18:43:11.398Z,2.85
2019-02-11T18:45:42.050Z,3.12
2019-02-11T18:48:11.693Z,2.28
2019-02-11T18:50:40.094Z,3.00
2019-02-11T18:53:08.477Z,2.97
2019-02-11T18:55:37.241Z,3.17
2019-02-11T18:58:06.982Z,3.40
2019-02-11T19:00:35.124Z,3.17
2019-02-11T19:03:03.847Z,3.60
2019-02-11T19:05:32.692Z,3.28
2019-02-11T19:08:00.894Z,4.87
2019-02-11T19:10:29.723Z,4.78
2019-02-11T19:12:59.071Z,4.20
2019-02-11T19:15:27.415Z,3.80
2019-02-11T19:17:56.049Z,3.45
2019-02-11T19:20:27.454Z,3.00
2019-02-11T19:22:57.498Z,3.17
2019-02-11T19:25:26.295Z,3.65
2019-02-11T19:27:55.723Z,4.37
2019-02-11T19:30:25.129Z,9.00
2019-02-11T19:32:53.053Z,9.50
2019-02-11T19:35:21.074Z,9.77
2019-02-11T19:37:49.408Z,9.02
2019-02-11T19:40:20.106Z,7.93
2019-02-11T19:42:48.967Z,5.90
2019-02-11T19:45:18.960Z,5.37
2019-02-11T19:47:47.211Z,6.30
2019-02-11T19:50:17.442Z,5.15
2019-02-11T19:52:49.581Z,3.67
2019-02-11T19:55:17.799Z,3.75
2019-02-11T19:57:45.425Z,3.72
2019-02-11T20:00:27.420Z,3.83
2019-02-11T20:02:58.064Z,4.15
2019-02-11T20:05:27.470Z,3.78
2019-02-11T20:07:55.943Z,3.95
2019-02-11T20:10:24.626Z,3.95
2019-02-11T20:12:54.757Z,4.35
2019-02-11T20:15:23.297Z,5.33
2019-02-11T20:17:54.237Z,4.13
2019-02-11T20:20:22.750Z,4.47
2019-02-11T20:22:51.743Z,4.07
2019-02-11T20:25:19.292Z,3.72
2019-02-11T20:27:49.792Z,4.00
2019-02-11T20:30:19.869Z,4.93
2019-02-11T20:32:48.024Z,3.90
2019-02-11T20:35:16.313Z,4.65
2019-02-11T20:37:45.192Z,4.57
2019-02-11T20:40:14.304Z,3.90
2019-02-11T20:42:43.068Z,4.50
2019-02-11T20:45:15.066Z,3.42
2019-02-11T20:47:45.079Z,3.50
2019-02-11T20:50:17.358Z,3.83
2019-02-11T20:52:45.630Z,3.30
2019-02-11T20:55:15.336Z,3.28
2019-02-11T20:57:44.475Z,3.83
2019-02-11T21:00:34.393Z,3.97
2019-02-11T21:03:08.471Z,3.70
2019-02-11T21:05:32.874Z,4.17
2019-02-11T21:08:04.358Z,3.83
2019-02-11T21:10:32.831Z,4.43
2019-02-11T21:13:00.772Z,4.10
2019-02-11T21:15:31.402Z,3.45
2019-02-11T21:18:02.396Z,4.43
2019-02-11T21:20:33.653Z,4.03
2019-02-11T21:23:02.772Z,4.07
2019-02-11T21:25:31.044Z,4.47
2019-02-11T21:28:00.280Z,4.53
2019-02-11T21:30:29.485Z,3.83
2019-02-11T21:32:59.396Z,4.00
2019-02-11T21:35:28.686Z,4.70
2019-02-11T21:37:58.801Z,4.97
2019-02-11T21:40:26.283Z,4.90
2019-02-11T21:42:54.704Z,4.00
2019-02-11T21:45:22.953Z,4.93
2019-02-11T21:47:50.991Z,3.37
2019-02-11T21:50:26.370Z,4.50
2019-02-11T21:52:51.312Z,3.67
2019-02-11T21:55:19.791Z,3.78
2019-02-11T21:57:52.058Z,3.90
2019-02-11T22:00:20.571Z,4.45
2019-02-11T22:02:50.123Z,4.35
2019-02-11T22:05:19.580Z,4.50
2019-02-11T22:07:48.941Z,4.40
2019-02-11T22:10:18.149Z,4.53
2019-02-11T22:12:46.255Z,4.07
2019-02-11T22:15:15.895Z,4.60
2019-02-11T22:17:46.157Z,4.70
2019-02-11T22:20:15.218Z,5.30
2019-02-11T22:22:44.112Z,4.62
2019-02-11T22:25:15.058Z,4.87
2019-02-11T22:27:43.182Z,4.57
2019-02-11T22:30:13.683Z,4.15
2019-02-11T22:32:42.579Z,4.73
2019-02-11T22:35:10.313Z,4.07
2019-02-11T22:37:40.204Z,4.20
2019-02-11T22:40:10.334Z,4.35
2019-02-11T22:42:38.214Z,4.28
2019-02-11T22:45:07.699Z,4.43
2019-02-11T22:47:35.816Z,5.43
2019-02-11T22:50:06.249Z,4.60
2019-02-11T22:52:35.817Z,4.33
2019-02-11T22:55:03.952Z,5.97
2019-02-11T22:57:31.993Z,5.03
2019-02-11T23:00:01.423Z,5.75
2019-02-11T23:02:30.125Z,5.18
2019-02-11T23:04:58.080Z,5.22
2019-02-11T23:07:27.702Z,4.95
2019-02-11T23:09:57.739Z,4.57
2019-02-11T23:12:25.697Z,5.33
2019-02-11T23:14:54.783Z,5.07
2019-02-11T23:17:26.788Z,4.33
2019-02-11T23:19:55.248Z,5.15
2019-02-11T23:22:25.182Z,6.53
2019-02-11T23:24:53.185Z,6.12
2019-02-11T23:27:21.764Z,6.87
2019-02-11T23:29:50.519Z,6.10
2019-02-11T23:32:18.610Z,5.57
2019-02-11T23:34:50.030Z,5.27
2019-02-11T23:37:19.302Z,4.90
2019-02-11T23:39:48.091Z,5.35
2019-02-11T23:42:16.836Z,4.43
2019-02-11T23:44:48.546Z,5.18
2019-02-11T23:47:18.742Z,4.65
2019-02-11T23:49:47.487Z,4.20
2019-02-11T23:52:17.763Z,4.95
2019-02-11T23:54:46.514Z,3.97
2019-02-11T23:57:16.492Z,4.50
2019-02-11T23:59:47.676Z,4.53
